Hmpden Sydney, Virginia
Current Conditions -  °F | °C
As of 12:55 AM on Sunday 23 Nov 2014 (Local Time) from KFVX Reporting Station
Clear Clear  
Wind Chill:   Ceiling: Unl
Heat Index:   Visibility: 10mi
Dew Point: -7°   Wind: 0mph
Humidity: 60%   Direction: NA
Pressure: 30.27"   Gusts: NA
Location:  37.2408°N, 78.4578°W
Report Text: KFVX 230555Z AUTO 00000KT 10SM CLR 00/M07 A3027 RMK AO2 T10031072 10030 21020
Loading
Personal Weather Stations






























Interactive Weather Map New forecast layout! Learn more

10-Day Weather Forecast

Advertisements
Track Severe Weather on mobile